Time;durP1;ratioP1;P1;durP2;ratioP2;P2;SDS_P1;SDS_P2;PMS_P1;PMS_P2;Temp;Humidity;BMP_temperature;BMP_pressure;BME280_temperature;BME280_humidity;BME280_pressure;Samples;Min_cycle;Max_cycle;Signal;HPM_P1;HPM_P2
2022/11/25 00:02:27;;;;;;;18.00;9.38;;;4.30;99.90;;;;;;5025726;28;20296;-77
2022/11/25 00:05:13;;;;;;;22.23;9.88;;;4.30;99.90;;;;;;5024586;28;20249;-75
2022/11/25 00:07:58;;;;;;;12.90;9.75;;;4.30;99.90;;;;;;5046096;28;20229;-77
2022/11/25 00:10:44;;;;;;;14.15;9.52;;;4.30;99.90;;;;;;5032401;28;20272;-76
2022/11/25 00:13:30;;;;;;;18.50;9.98;;;4.40;99.90;;;;;;5045996;28;20406;-77
2022/11/25 00:16:19;;;;;;;11.80;8.52;;;4.40;99.90;;;;;;5025888;28;20209;-76
2022/11/25 00:19:04;;;;;;;12.80;8.02;;;4.40;99.90;;;;;;5034695;28;20200;-76
2022/11/25 00:21:50;;;;;;;14.68;7.93;;;4.50;99.90;;;;;;5041267;28;20202;-77
2022/11/25 00:24:36;;;;;;;15.75;9.80;;;4.50;99.90;;;;;;5025091;28;20217;-77
2022/11/25 00:27:22;;;;;;;17.10;10.23;;;4.10;99.90;;;;;;5034428;28;20232;-77
2022/11/25 00:30:08;;;;;;;13.75;9.32;;;4.00;99.90;;;;;;5033510;28;20569;-74
2022/11/25 00:32:55;;;;;;;20.20;12.25;;;3.80;99.90;;;;;;5041168;28;20202;-76
2022/11/25 00:35:41;;;;;;;17.85;11.25;;;3.90;99.90;;;;;;5038891;28;20580;-74
2022/11/25 00:38:26;;;;;;;18.40;11.82;;;3.90;99.90;;;;;;5036943;28;20329;-77
2022/11/25 00:44:36;;;;;;;17.92;10.93;;;4.00;99.90;;;;;;5040485;28;20275;-77
2022/11/25 00:47:22;;;;;;;23.65;11.52;;;4.10;99.90;;;;;;5041282;28;20584;-74
2022/11/25 00:50:10;;;;;;;21.40;11.25;;;4.20;99.90;;;;;;5029983;28;20213;-76
2022/11/25 00:52:55;;;;;;;24.15;13.00;;;4.30;99.90;;;;;;5044684;28;20202;-77
2022/11/25 00:58:40;;;;;;;19.50;11.60;;;4.40;99.90;;;;;;5041254;28;20197;-74
2022/11/25 01:01:26;;;;;;;17.48;10.40;;;4.40;99.90;;;;;;5036218;28;20269;-74
2022/11/25 01:04:11;;;;;;;15.93;10.70;;;4.40;99.90;;;;;;5021225;28;20209;-76
2022/11/25 01:06:58;;;;;;;17.25;11.55;;;4.20;99.90;;;;;;5038948;28;20299;-77
2022/11/25 01:09:44;;;;;;;20.27;12.23;;;4.10;99.90;;;;;;5043048;28;20747;-77
2022/11/25 01:12:29;;;;;;;26.08;15.73;;;3.90;99.90;;;;;;5045175;28;20217;-77
2022/11/25 01:15:15;;;;;;;28.30;15.70;;;3.60;99.90;;;;;;5019295;28;20206;-77
2022/11/25 01:18:00;;;;;;;23.67;16.67;;;3.50;99.90;;;;;;5034614;28;20229;-74
2022/11/25 01:20:46;;;;;;;27.50;16.52;;;3.60;99.90;;;;;;5038283;28;20197;-75
2022/11/25 01:23:33;;;;;;;22.23;15.55;;;3.80;99.90;;;;;;5043235;28;20256;-76
2022/11/25 01:26:21;;;;;;;29.77;17.83;;;3.80;99.90;;;;;;5035282;28;20250;-77
2022/11/25 01:29:08;;;;;;;29.33;19.63;;;3.90;99.90;;;;;;5045557;28;20251;-77
2022/11/25 01:31:56;;;;;;;26.35;16.52;;;3.70;99.90;;;;;;5042320;28;20225;-74
2022/11/25 01:34:41;;;;;;;27.75;17.67;;;3.60;99.90;;;;;;5032493;28;20556;-74
2022/11/25 01:37:27;;;;;;;27.50;16.73;;;3.80;99.90;;;;;;5059461;23;20764;-79
2022/11/25 01:40:15;;;;;;;24.95;16.65;;;3.90;99.90;;;;;;5070584;28;20220;-78
2022/11/25 01:43:00;;;;;;;25.98;17.40;;;4.00;99.90;;;;;;5066449;28;20578;-79
2022/11/25 01:45:46;;;;;;;29.00;16.60;;;3.80;99.90;;;;;;5060580;28;20197;-78
2022/11/25 01:48:39;;;;;;;26.23;16.48;;;3.80;99.90;;;;;;5058020;28;20212;-78
2022/11/25 01:51:28;;;;;;;22.90;16.17;;;3.70;99.90;;;;;;5044169;28;20217;-76
2022/11/25 01:54:18;;;;;;;28.75;15.50;;;3.80;99.90;;;;;;5035168;28;20201;-76
2022/11/25 01:57:10;;;;;;;23.63;14.80;;;3.70;99.90;;;;;;5040919;28;20776;-76
2022/11/25 02:00:00;;;;;;;19.73;13.43;;;3.70;99.90;;;;;;5046081;28;20204;-78
2022/11/25 02:02:47;;;;;;;21.85;14.00;;;3.90;99.90;;;;;;5031480;28;20301;-78
2022/11/25 02:05:40;;;;;;;17.77;13.13;;;4.00;99.90;;;;;;5026597;28;20328;-75
2022/11/25 02:08:27;;;;;;;21.20;13.45;;;4.10;99.90;;;;;;5038116;28;20602;-76
2022/11/25 02:11:15;;;;;;;21.30;12.82;;;4.00;99.90;;;;;;5049242;28;20217;-79
2022/11/25 02:14:03;;;;;;;20.67;12.32;;;4.20;99.90;;;;;;5042281;28;20288;-76
2022/11/25 02:16:49;;;;;;;18.50;11.25;;;4.30;99.90;;;;;;5049935;28;20217;-78
2022/11/25 02:19:48;;;;;;;17.88;11.98;;;4.30;99.90;;;;;;5061499;28;20421;-79
2022/11/25 02:22:47;;;;;;;22.73;14.68;;;4.40;99.90;;;;;;5034030;28;20201;-78
2022/11/25 02:25:36;;;;;;;14.98;11.65;;;4.30;99.90;;;;;;5029321;28;20233;-79
2022/11/25 02:28:25;;;;;;;19.02;12.35;;;4.20;99.90;;;;;;5043175;28;20272;-78
2022/11/25 02:31:10;;;;;;;20.00;12.57;;;4.20;99.90;;;;;;5039579;28;20264;-78
2022/11/25 02:33:56;;;;;;;20.52;12.00;;;4.00;99.90;;;;;;5026599;28;20217;-78
2022/11/25 02:36:42;;;;;;;18.10;11.68;;;3.90;99.90;;;;;;5040966;28;20256;-78
2022/11/25 02:39:28;;;;;;;21.92;12.15;;;4.00;99.90;;;;;;5037613;28;20286;-79
2022/11/25 02:42:17;;;;;;;23.15;11.55;;;4.00;99.90;;;;;;5037764;28;20197;-78
2022/11/25 02:45:03;;;;;;;16.90;11.93;;;4.10;99.90;;;;;;5045056;28;20218;-79
2022/11/25 02:47:49;;;;;;;18.95;12.10;;;4.20;99.90;;;;;;5040782;28;20241;-77
2022/11/25 02:50:34;;;;;;;16.00;11.02;;;4.30;99.90;;;;;;5033658;28;20213;-76
2022/11/25 02:53:21;;;;;;;16.77;11.93;;;4.40;99.90;;;;;;5029359;28;20749;-76
2022/11/25 02:56:08;;;;;;;17.73;10.63;;;4.40;99.90;;;;;;5029755;28;20228;-76
2022/11/25 02:58:56;;;;;;;25.83;11.73;;;4.40;99.90;;;;;;5045442;28;20205;-78
2022/11/25 03:01:41;;;;;;;20.15;11.30;;;4.30;99.90;;;;;;5048378;28;20228;-77
2022/11/25 03:04:27;;;;;;;22.80;11.27;;;4.30;99.90;;;;;;5037663;28;20209;-78
2022/11/25 03:07:12;;;;;;;17.83;11.20;;;4.30;99.90;;;;;;5036424;28;20345;-78
2022/11/25 03:09:58;;;;;;;21.98;11.82;;;4.20;99.90;;;;;;5041225;28;20209;-75
2022/11/25 03:12:44;;;;;;;15.65;11.80;;;4.30;99.90;;;;;;5026925;28;20217;-78
2022/11/25 03:15:31;;;;;;;18.90;11.70;;;4.40;99.90;;;;;;5037355;28;20201;-79
2022/11/25 03:18:17;;;;;;;20.75;10.98;;;4.60;99.90;;;;;;5042346;28;20216;-78
2022/11/25 03:21:02;;;;;;;21.67;11.93;;;4.60;99.90;;;;;;5045004;28;20217;-78
2022/11/25 03:23:48;;;;;;;27.23;12.80;;;4.70;99.90;;;;;;5032723;28;20682;-76
2022/11/25 03:26:34;;;;;;;16.45;9.98;;;4.60;99.90;;;;;;5043882;28;20256;-78
2022/11/25 03:29:20;;;;;;;21.08;12.07;;;4.70;99.90;;;;;;5040416;28;20209;-78
2022/11/25 03:32:09;;;;;;;16.45;10.30;;;4.70;99.90;;;;;;5043257;28;20310;-78
2022/11/25 03:34:55;;;;;;;21.85;11.77;;;4.70;99.90;;;;;;5048805;28;20212;-78
2022/11/25 03:37:41;;;;;;;19.13;10.98;;;4.70;99.90;;;;;;5035788;28;20272;-78
2022/11/25 03:40:27;;;;;;;18.30;12.05;;;4.60;99.90;;;;;;5033387;28;20543;-78
2022/11/25 03:43:13;;;;;;;19.85;11.93;;;4.60;99.90;;;;;;5027309;28;20198;-78
2022/11/25 03:45:59;;;;;;;18.88;12.18;;;4.50;99.90;;;;;;5035982;28;20631;-78
2022/11/25 03:48:46;;;;;;;22.00;13.07;;;4.50;99.90;;;;;;5039962;28;20217;-77
2022/11/25 03:51:31;;;;;;;18.92;11.77;;;4.40;99.90;;;;;;5042340;28;20488;-78
2022/11/25 03:54:17;;;;;;;16.63;11.80;;;4.40;99.90;;;;;;5039107;28;20210;-78
2022/11/25 03:57:02;;;;;;;28.98;12.57;;;4.30;99.90;;;;;;5037644;28;20229;-78
2022/11/25 03:59:48;;;;;;;19.95;12.43;;;4.20;99.90;;;;;;5040517;28;20475;-77
2022/11/25 04:02:33;;;;;;;16.70;12.38;;;4.20;99.90;;;;;;5037479;28;20197;-78
2022/11/25 04:05:20;;;;;;;23.20;14.43;;;4.10;99.90;;;;;;5040172;28;20205;-77
2022/11/25 04:08:06;;;;;;;27.88;15.93;;;4.20;99.90;;;;;;5048427;28;20324;-77
2022/11/25 04:10:51;;;;;;;26.55;14.75;;;4.30;99.90;;;;;;5044304;28;20564;-77
2022/11/25 04:13:36;;;;;;;24.40;15.32;;;4.40;99.90;;;;;;5039780;28;20229;-78
2022/11/25 04:16:24;;;;;;;27.40;16.00;;;4.50;99.90;;;;;;5038744;28;20221;-77
2022/11/25 04:19:10;;;;;;;20.95;15.35;;;4.50;99.90;;;;;;5037391;28;20229;-77
2022/11/25 04:21:58;;;;;;;24.98;15.98;;;4.70;99.90;;;;;;5036647;28;20222;-77
2022/11/25 04:24:44;;;;;;;18.52;14.85;;;4.70;99.90;;;;;;5042737;28;20237;-78
2022/11/25 04:27:29;;;;;;;24.75;14.48;;;4.70;99.90;;;;;;5041458;28;20254;-78
2022/11/25 04:30:15;;;;;;;23.58;15.13;;;4.60;99.90;;;;;;5037178;28;20354;-78
2022/11/25 04:33:01;;;;;;;21.02;13.98;;;4.60;99.90;;;;;;5035008;28;20221;-78
2022/11/25 04:35:48;;;;;;;28.63;14.00;;;4.60;99.90;;;;;;5038989;28;20368;-78
2022/11/25 04:38:36;;;;;;;24.80;14.00;;;4.70;99.90;;;;;;5048158;28;20204;-78
2022/11/25 04:41:21;;;;;;;17.88;13.35;;;4.70;99.90;;;;;;5032107;28;20277;-77
2022/11/25 04:44:07;;;;;;;22.15;12.60;;;4.70;99.90;;;;;;5047349;28;20297;-77
2022/11/25 04:46:53;;;;;;;17.27;11.98;;;4.60;99.90;;;;;;5044003;28;20236;-77
2022/11/25 04:49:38;;;;;;;20.38;12.82;;;4.50;99.90;;;;;;5044911;28;20228;-78
2022/11/25 04:52:24;;;;;;;26.00;14.32;;;4.60;99.90;;;;;;5033646;28;20221;-77
2022/11/25 04:55:11;;;;;;;22.25;13.35;;;4.60;99.90;;;;;;5042209;28;20210;-77
2022/11/25 04:57:57;;;;;;;17.80;12.82;;;4.60;99.90;;;;;;5040661;28;20282;-78
2022/11/25 05:00:42;;;;;;;22.10;13.27;;;4.50;99.90;;;;;;5037782;28;20264;-78
2022/11/25 05:03:28;;;;;;;15.65;12.85;;;4.60;99.90;;;;;;5049609;28;20686;-78
2022/11/25 05:06:13;;;;;;;17.60;12.85;;;4.60;99.90;;;;;;5035895;28;20231;-77
2022/11/25 05:08:59;;;;;;;19.38;13.13;;;4.70;99.90;;;;;;5042941;28;20401;-78
2022/11/25 05:11:46;;;;;;;28.17;13.05;;;4.80;99.90;;;;;;5031748;28;20206;-77
2022/11/25 05:14:34;;;;;;;26.58;12.77;;;4.80;99.90;;;;;;5036016;28;20209;-78
2022/11/25 05:17:22;;;;;;;19.83;11.70;;;4.50;99.90;;;;;;5032829;28;20232;-78
2022/11/25 05:20:08;;;;;;;18.67;13.00;;;4.40;99.90;;;;;;5035152;28;20243;-78
2022/11/25 05:22:53;;;;;;;15.48;11.75;;;4.30;99.90;;;;;;5039951;28;20205;-77
2022/11/25 05:25:40;;;;;;;22.58;11.25;;;4.20;99.90;;;;;;5037230;28;20201;-78
2022/11/25 05:28:27;;;;;;;16.17;10.15;;;4.20;99.90;;;;;;5040096;28;20786;-78
2022/11/25 05:31:13;;;;;;;17.92;9.88;;;4.10;99.90;;;;;;5029819;28;20231;-77
2022/11/25 05:34:00;;;;;;;16.98;10.23;;;4.20;99.90;;;;;;5041641;28;20297;-77
2022/11/25 05:36:46;;;;;;;16.00;9.30;;;4.10;99.90;;;;;;5042995;28;20763;-78
2022/11/25 05:39:32;;;;;;;16.75;9.43;;;4.10;99.90;;;;;;5032287;28;20216;-78
2022/11/25 05:42:17;;;;;;;19.52;10.57;;;4.30;99.90;;;;;;5038124;28;20210;-77
2022/11/25 05:45:06;;;;;;;12.77;9.73;;;4.40;99.90;;;;;;5037381;28;20217;-78
2022/11/25 05:47:52;;;;;;;14.85;9.50;;;4.50;99.90;;;;;;5034555;28;20211;-78
2022/11/25 05:50:38;;;;;;;21.55;12.48;;;4.50;99.90;;;;;;5033033;28;20205;-77
2022/11/25 05:53:23;;;;;;;20.88;9.65;;;4.60;99.90;;;;;;5039882;28;20588;-78
2022/11/25 05:56:10;;;;;;;14.73;8.38;;;4.60;99.90;;;;;;5043950;28;20818;-78
2022/11/25 05:58:56;;;;;;;13.15;8.10;;;4.60;99.90;;;;;;5039588;28;20205;-77
2022/11/25 06:01:43;;;;;;;15.80;8.18;;;4.40;99.90;;;;;;5033782;28;20687;-78
2022/11/25 06:04:29;;;;;;;11.18;7.72;;;4.50;99.90;;;;;;5035261;28;20201;-78
2022/11/25 06:07:14;;;;;;;12.88;8.65;;;4.50;99.90;;;;;;5045029;28;20240;-78
2022/11/25 06:10:00;;;;;;;13.35;8.30;;;4.50;99.90;;;;;;5030674;28;20237;-78
2022/11/25 06:12:46;;;;;;;18.10;8.63;;;4.40;99.90;;;;;;5038167;28;20717;-78
2022/11/25 06:15:31;;;;;;;17.63;8.95;;;4.30;99.90;;;;;;5041367;28;20201;-78
2022/11/25 06:18:18;;;;;;;21.35;8.80;;;4.30;99.90;;;;;;5041506;28;20204;-77
2022/11/25 06:21:06;;;;;;;18.48;10.02;;;4.30;99.90;;;;;;5035885;28;20201;-78
2022/11/25 06:23:51;;;;;;;12.18;8.32;;;4.30;99.90;;;;;;5039620;28;20201;-77
2022/11/25 06:26:37;;;;;;;10.75;8.48;;;4.30;99.90;;;;;;5047975;28;20356;-78
2022/11/25 06:29:22;;;;;;;12.02;8.80;;;4.50;99.90;;;;;;5033630;28;20209;-78
2022/11/25 06:32:08;;;;;;;13.90;9.43;;;4.60;99.90;;;;;;5043665;28;20285;-78
2022/11/25 06:34:55;;;;;;;14.57;9.48;;;4.70;99.90;;;;;;5035826;28;20202;-77
2022/11/25 06:37:41;;;;;;;20.10;9.23;;;4.80;99.90;;;;;;5035887;28;20541;-78
2022/11/25 06:40:27;;;;;;;15.10;8.65;;;4.80;99.90;;;;;;5026345;28;20217;-77
2022/11/25 06:43:12;;;;;;;12.70;9.10;;;4.80;99.90;;;;;;5038242;28;20201;-77
2022/11/25 06:46:03;;;;;;;19.38;10.20;;;4.70;99.90;;;;;;5039654;28;20229;-77
2022/11/25 06:48:48;;;;;;;16.52;10.07;;;4.80;99.90;;;;;;5032205;28;20598;-77
2022/11/25 06:51:35;;;;;;;16.98;12.70;;;4.90;99.90;;;;;;5036535;28;20209;-77
2022/11/25 06:54:20;;;;;;;26.35;17.13;;;5.00;99.90;;;;;;5040646;28;20220;-78
2022/11/25 06:57:06;;;;;;;20.35;14.00;;;4.80;99.90;;;;;;5044545;28;20224;-77
2022/11/25 06:59:52;;;;;;;26.33;16.92;;;4.90;99.90;;;;;;5035195;28;20620;-78
2022/11/25 07:02:38;;;;;;;59.33;27.95;;;5.00;99.90;;;;;;5040280;28;20208;-77
2022/11/25 07:05:24;;;;;;;66.18;35.22;;;5.10;99.90;;;;;;5034178;28;20206;-77
2022/11/25 07:08:11;;;;;;;64.38;31.13;;;5.20;99.90;;;;;;5031520;28;20200;-77
2022/11/25 07:11:02;;;;;;;29.20;17.58;;;5.20;99.90;;;;;;5042278;28;20210;-78
2022/11/25 07:13:51;;;;;;;27.60;15.82;;;5.30;99.90;;;;;;5041007;28;20225;-77
2022/11/25 07:16:38;;;;;;;30.50;13.38;;;5.20;99.90;;;;;;5048915;28;20297;-78
2022/11/25 07:19:23;;;;;;;19.55;13.27;;;5.30;99.90;;;;;;5027691;28;20317;-77
2022/11/25 07:22:09;;;;;;;39.63;23.75;;;5.30;99.90;;;;;;5042156;28;20279;-78
2022/11/25 07:24:56;;;;;;;48.45;29.27;;;5.20;99.90;;;;;;5042202;28;20201;-77
2022/11/25 07:27:41;;;;;;;41.97;24.92;;;5.30;99.90;;;;;;5039520;28;20224;-76
2022/11/25 07:30:27;;;;;;;53.08;32.95;;;5.30;99.90;;;;;;5037531;28;20208;-77
2022/11/25 07:33:12;;;;;;;37.25;21.42;;;5.30;99.90;;;;;;5042993;28;20670;-78
2022/11/25 07:36:02;;;;;;;31.67;19.25;;;5.30;99.90;;;;;;5059221;22;20604;-74
2022/11/25 07:38:47;;;;;;;29.00;18.13;;;5.50;99.90;;;;;;5042697;28;20228;-76
2022/11/25 07:41:35;;;;;;;28.67;19.65;;;5.60;99.90;;;;;;5057923;28;20794;-76
2022/11/25 07:44:21;;;;;;;25.67;18.33;;;5.60;99.90;;;;;;5049178;28;20201;-75
2022/11/25 07:47:06;;;;;;;25.80;16.02;;;5.70;99.90;;;;;;5047512;28;20287;-76
2022/11/25 07:49:52;;;;;;;24.73;14.00;;;5.70;99.90;;;;;;5043142;28;20193;-77
2022/11/25 07:52:39;;;;;;;36.95;20.08;;;5.60;99.90;;;;;;5052140;28;20196;-76
2022/11/25 07:55:25;;;;;;;33.33;21.42;;;5.60;99.90;;;;;;5042357;28;20275;-76
2022/11/25 07:58:12;;;;;;;27.70;18.40;;;5.60;99.90;;;;;;5040029;28;20771;-74
2022/11/25 08:00:57;;;;;;;27.73;15.48;;;5.60;99.90;;;;;;5044823;28;20278;-76
2022/11/25 08:03:44;;;;;;;18.67;14.25;;;5.70;99.90;;;;;;5057214;28;20216;-76
2022/11/25 08:06:30;;;;;;;40.88;24.27;;;5.60;99.90;;;;;;5044542;28;20291;-76
2022/11/25 08:09:18;;;;;;;21.33;14.40;;;5.70;99.90;;;;;;5040687;28;20228;-75
2022/11/25 08:12:04;;;;;;;20.08;13.32;;;5.80;99.90;;;;;;5050650;28;20220;-76
2022/11/25 08:14:51;;;;;;;16.52;12.10;;;5.70;99.90;;;;;;5053481;28;20228;-76
2022/11/25 08:17:36;;;;;;;19.38;12.85;;;5.80;99.90;;;;;;5046400;28;20718;-76
2022/11/25 08:20:22;;;;;;;14.88;10.57;;;5.90;99.90;;;;;;5044929;28;20706;-76
2022/11/25 08:23:08;;;;;;;18.13;11.90;;;6.00;99.90;;;;;;5047634;28;20248;-76
2022/11/25 08:25:53;;;;;;;17.35;11.55;;;6.10;99.90;;;;;;5050974;28;20338;-75
2022/11/25 08:28:41;;;;;;;17.42;11.45;;;6.20;99.90;;;;;;5044491;28;20205;-75
2022/11/25 08:31:30;;;;;;;21.63;11.98;;;6.20;99.90;;;;;;5037402;28;20236;-76
2022/11/25 08:34:19;;;;;;;24.13;11.38;;;6.20;99.90;;;;;;5047743;28;20224;-75
2022/11/25 08:37:04;;;;;;;19.87;15.10;;;6.20;99.90;;;;;;5049957;28;20237;-76
2022/11/25 08:39:50;;;;;;;27.40;18.33;;;6.30;99.90;;;;;;5058629;28;20967;-76
2022/11/25 08:42:35;;;;;;;23.88;17.30;;;6.30;99.90;;;;;;5049624;28;20307;-75
2022/11/25 08:45:21;;;;;;;24.80;17.30;;;6.40;99.90;;;;;;5056044;28;20201;-75
2022/11/25 08:48:08;;;;;;;33.33;20.27;;;6.30;99.90;;;;;;5045418;28;20467;-76
2022/11/25 08:50:54;;;;;;;35.95;21.73;;;6.40;99.90;;;;;;5054805;28;20467;-75
2022/11/25 08:53:41;;;;;;;25.90;17.15;;;6.40;99.90;;;;;;5051474;28;20216;-75
2022/11/25 08:56:27;;;;;;;26.47;18.93;;;6.40;99.90;;;;;;5047166;28;20229;-76
2022/11/25 08:59:13;;;;;;;29.73;17.13;;;6.40;99.90;;;;;;5047883;28;20465;-76
2022/11/25 09:01:58;;;;;;;23.30;14.95;;;6.40;99.90;;;;;;5051267;28;20492;-75
2022/11/25 09:04:45;;;;;;;22.80;14.63;;;6.60;99.90;;;;;;5043169;28;20275;-76
2022/11/25 09:07:30;;;;;;;21.60;13.97;;;6.60;99.90;;;;;;5045627;28;20462;-76
2022/11/25 09:10:17;;;;;;;25.20;14.70;;;6.60;99.90;;;;;;5054462;28;20935;-75
2022/11/25 09:13:02;;;;;;;26.07;14.20;;;6.60;99.90;;;;;;5050732;28;20697;-76
2022/11/25 09:15:48;;;;;;;20.90;12.53;;;6.70;99.90;;;;;;5050840;28;20497;-75
2022/11/25 09:18:35;;;;;;;22.27;13.53;;;6.70;99.90;;;;;;5039934;28;20447;-76
2022/11/25 09:21:23;;;;;;;21.55;14.18;;;6.70;99.90;;;;;;5048828;28;20452;-76
2022/11/25 09:24:09;;;;;;;26.23;16.33;;;6.70;99.90;;;;;;5050212;28;20324;-75
2022/11/25 09:26:55;;;;;;;24.23;14.40;;;6.70;99.90;;;;;;5046984;28;20224;-76
2022/11/25 09:29:40;;;;;;;21.70;13.70;;;6.70;99.90;;;;;;5054343;28;20507;-76
2022/11/25 09:32:26;;;;;;;22.33;14.10;;;6.70;99.90;;;;;;5051626;28;20470;-75
2022/11/25 09:35:11;;;;;;;23.33;14.27;;;6.70;99.90;;;;;;5051184;28;20558;-76
2022/11/25 09:37:58;;;;;;;22.50;15.53;;;6.70;99.90;;;;;;5046020;28;20479;-75
2022/11/25 09:40:50;;;;;;;28.10;14.70;;;6.80;99.90;;;;;;5050801;28;20756;-75
2022/11/25 09:46:58;;;;;;;21.05;13.27;;;6.90;99.90;;;;;;5049382;28;20490;-76
2022/11/25 09:49:56;;;;;;;14.70;9.97;;;6.90;99.90;;;;;;5053743;28;20320;-75
2022/11/25 09:52:52;;;;;;;18.87;7.40;;;7.10;99.90;;;;;;5050988;28;20421;-76
2022/11/25 09:55:44;;;;;;;9.23;6.87;;;7.20;99.90;;;;;;5048821;28;20417;-75
2022/11/25 09:58:34;;;;;;;14.70;5.47;;;7.30;99.90;;;;;;5049083;28;20520;-76
2022/11/25 10:01:24;;;;;;;11.47;5.30;;;7.40;99.90;;;;;;5049138;28;20436;-76
2022/11/25 10:04:15;;;;;;;7.03;4.10;;;7.60;99.90;;;;;;5041474;28;20490;-76
2022/11/25 10:07:03;;;;;;;15.98;4.70;;;7.70;99.90;;;;;;5044707;28;21011;-75
2022/11/25 10:09:48;;;;;;;11.07;4.03;;;7.70;99.90;;;;;;5053562;28;20205;-76
2022/11/25 10:12:40;;;;;;;10.67;5.57;;;7.80;99.90;;;;;;5048427;28;20200;-75
2022/11/25 10:15:29;;;;;;;13.50;5.40;;;7.80;99.90;;;;;;5042338;28;20450;-76
2022/11/25 10:18:21;;;;;;;10.50;4.10;;;7.80;99.90;;;;;;5045341;28;20212;-75
2022/11/25 10:21:09;;;;;;;9.10;4.10;;;7.90;99.90;;;;;;5049956;28;20456;-76
2022/11/25 10:23:55;;;;;;;18.13;4.90;;;7.90;99.90;;;;;;5049790;28;20446;-74
2022/11/25 10:26:43;;;;;;;22.33;4.70;;;7.90;99.90;;;;;;5041474;28;20821;-75
2022/11/25 10:29:32;;;;;;;10.93;3.57;;;8.00;99.90;;;;;;5044441;28;20443;-75
2022/11/25 10:32:23;;;;;;;12.97;3.90;;;8.00;99.90;;;;;;5046126;28;20451;-76
2022/11/25 10:35:20;;;;;;;12.30;4.20;;;8.00;99.90;;;;;;5048476;28;20533;-75
2022/11/25 10:38:12;;;;;;;10.10;4.03;;;8.10;99.90;;;;;;5046590;28;20482;-75
2022/11/25 10:40:58;;;;;;;14.13;4.37;;;8.10;99.90;;;;;;5052199;28;20443;-74
2022/11/25 10:43:45;;;;;;;6.23;3.90;;;8.10;99.90;;;;;;5055205;28;20468;-74
2022/11/25 10:46:38;;;;;;;13.70;4.60;;;8.10;99.90;;;;;;5047513;28;20471;-74
2022/11/25 10:49:29;;;;;;;9.07;4.40;;;8.20;99.90;;;;;;5044798;28;20451;-75
2022/11/25 10:52:20;;;;;;;13.47;4.73;;;8.10;99.90;;;;;;5047138;28;20418;-74
2022/11/25 10:55:12;;;;;;;10.97;4.50;;;8.10;99.90;;;;;;5046913;28;20479;-76
2022/11/25 10:57:58;;;;;;;10.03;5.63;;;8.20;99.90;;;;;;5049295;28;20452;-74
2022/11/25 11:00:44;;;;;;;11.87;5.37;;;8.20;99.90;;;;;;5046368;28;20555;-74
2022/11/25 11:03:31;;;;;;;17.90;5.07;;;8.30;99.90;;;;;;5042580;28;20451;-74
2022/11/25 11:06:38;;;;;;;6.00;3.83;;;8.30;99.90;;;;;;5039254;28;20835;-74
2022/11/25 11:09:34;;;;;;;14.90;4.47;;;8.30;99.90;;;;;;5046997;28;20449;-74
2022/11/25 11:12:23;;;;;;;14.00;4.47;;;8.30;99.90;;;;;;5041867;28;20432;-72
2022/11/25 11:15:18;;;;;;;6.53;3.40;;;8.40;99.90;;;;;;5042804;28;20853;-75
2022/11/25 11:18:21;;;;;;;14.50;5.47;;;8.30;99.90;;;;;;5047529;28;20498;-76
2022/11/25 11:21:23;;;;;;;7.90;3.70;;;8.30;99.90;;;;;;5052576;28;20550;-75
2022/11/25 11:24:25;;;;;;;17.67;5.30;;;8.30;99.90;;;;;;5053536;28;20419;-75
2022/11/25 11:27:20;;;;;;;9.97;4.00;;;8.30;99.90;;;;;;5043640;28;20474;-75
2022/11/25 11:30:11;;;;;;;19.02;4.68;;;8.20;99.90;;;;;;5052025;28;20457;-76
2022/11/25 11:33:02;;;;;;;12.60;5.05;;;8.20;99.90;;;;;;5050334;28;20282;-75
2022/11/25 11:35:54;;;;;;;8.63;4.10;;;8.20;99.90;;;;;;5051204;28;20706;-75
2022/11/25 11:38:49;;;;;;;16.83;5.57;;;8.20;99.90;;;;;;5042344;28;20542;-75
2022/11/25 11:41:40;;;;;;;13.60;5.00;;;8.30;99.90;;;;;;5046885;28;20455;-75
2022/11/25 11:44:34;;;;;;;6.23;4.10;;;8.40;99.90;;;;;;5047460;28;20424;-75
2022/11/25 11:47:30;;;;;;;16.97;5.00;;;8.40;99.90;;;;;;5041751;28;20467;-76
2022/11/25 11:50:26;;;;;;;10.50;4.53;;;8.50;99.90;;;;;;5044217;28;20440;-76
2022/11/25 11:53:20;;;;;;;7.97;4.60;;;8.50;99.90;;;;;;5039041;28;20494;-74
2022/11/25 11:56:15;;;;;;;16.20;5.57;;;8.60;99.90;;;;;;5043296;28;20628;-76
2022/11/25 11:59:20;;;;;;;9.60;5.30;;;8.60;99.90;;;;;;5040381;28;20224;-76
2022/11/25 12:02:31;;;;;;;10.00;5.00;;;8.70;99.90;;;;;;5044242;28;20977;-76
2022/11/25 12:05:21;;;;;;;13.43;4.70;;;8.80;99.90;;;;;;5041572;28;20422;-75
2022/11/25 12:08:11;;;;;;;14.03;4.83;;;8.80;99.90;;;;;;5045940;28;20445;-74
2022/11/25 12:11:01;;;;;;;11.17;5.10;;;8.90;99.90;;;;;;5047144;28;20451;-74
2022/11/25 12:13:52;;;;;;;12.77;5.10;;;8.90;99.90;;;;;;5037427;28;20523;-73
2022/11/25 12:16:44;;;;;;;10.50;5.40;;;9.00;99.90;;;;;;5041897;28;20514;-73
2022/11/25 12:19:37;;;;;;;9.37;5.40;;;9.00;99.90;;;;;;5045445;28;20443;-73
2022/11/25 12:22:28;;;;;;;10.63;4.83;;;9.10;99.90;;;;;;5047528;28;20996;-76
2022/11/25 12:25:19;;;;;;;11.00;5.43;;;9.10;99.90;;;;;;5041800;28;20439;-75
2022/11/25 12:28:10;;;;;;;15.13;5.07;;;9.30;99.90;;;;;;5047601;28;20907;-74
2022/11/25 12:31:05;;;;;;;12.10;5.33;;;9.40;99.90;;;;;;5040456;28;20455;-75
2022/11/25 12:34:04;;;;;;;8.97;5.10;;;9.40;99.90;;;;;;5040300;28;20947;-74
2022/11/25 12:37:02;;;;;;;11.67;5.80;;;9.30;99.90;;;;;;5043346;28;20476;-73
2022/11/25 12:40:00;;;;;;;9.33;4.80;;;9.30;99.90;;;;;;5045853;28;21274;-75
2022/11/25 12:42:48;;;;;;;23.73;6.27;;;9.30;99.90;;;;;;5041740;28;21037;-75
2022/11/25 12:45:34;;;;;;;8.97;5.13;;;9.30;99.90;;;;;;5042584;28;20526;-75
2022/11/25 12:48:21;;;;;;;18.77;6.40;;;9.40;99.90;;;;;;5052295;28;20502;-75
2022/11/25 12:51:17;;;;;;;19.63;7.53;;;9.50;99.90;;;;;;5048573;28;20799;-75
2022/11/25 12:54:13;;;;;;;14.13;6.50;;;9.50;99.90;;;;;;5047781;28;20512;-75
2022/11/25 12:57:23;;;;;;;12.47;6.67;;;9.50;99.90;;;;;;5050224;28;20529;-76
2022/11/25 13:00:16;;;;;;;13.20;5.37;;;9.60;99.90;;;;;;5058087;28;20523;-75
2022/11/25 13:03:30;;;;;;;16.43;5.93;;;9.50;99.90;;;;;;5048769;28;20446;-76
2022/11/25 13:06:30;;;;;;;11.27;5.40;;;9.50;99.90;;;;;;5042231;28;20499;-74
2022/11/25 13:09:38;;;;;;;16.77;5.70;;;9.50;99.90;;;;;;5041830;28;20463;-73
2022/11/25 13:12:38;;;;;;;11.90;5.53;;;9.60;99.90;;;;;;5044971;28;21179;-74
2022/11/25 13:15:27;;;;;;;12.50;5.73;;;9.60;99.90;;;;;;5039572;28;20528;-74
2022/11/25 13:18:16;;;;;;;10.30;6.10;;;9.60;99.90;;;;;;5038407;28;20500;-74
2022/11/25 13:21:11;;;;;;;12.37;5.70;;;9.60;99.90;;;;;;5045876;28;20836;-73
2022/11/25 13:23:58;;;;;;;13.70;5.20;;;9.60;99.90;;;;;;5044775;28;20451;-74
2022/11/25 13:26:49;;;;;;;12.80;6.00;;;9.60;99.90;;;;;;5040722;28;21007;-73
2022/11/25 13:30:02;;;;;;;30.53;7.23;;;9.50;99.90;;;;;;5049057;28;20471;-73
2022/11/25 13:32:48;;;;;;;18.90;6.17;;;9.50;99.90;;;;;;5043859;28;20581;-74
2022/11/25 13:35:37;;;;;;;9.27;5.87;;;9.50;99.90;;;;;;5042752;28;20588;-74
2022/11/25 13:39:01;;;;;;;13.93;6.53;;;9.50;99.90;;;;;;5093720;22;20933;-76
2022/11/25 13:41:58;;;;;;;22.47;7.20;;;9.60;99.90;;;;;;5080759;28;20600;-76
2022/11/25 13:44:52;;;;;;;13.37;6.17;;;9.50;99.90;;;;;;5082542;28;20446;-76
2022/11/25 13:47:40;;;;;;;9.90;5.50;;;9.50;99.90;;;;;;5080708;28;20463;-76
2022/11/25 13:50:27;;;;;;;11.70;6.13;;;9.60;99.90;;;;;;5071588;28;20544;-74
2022/11/25 13:53:21;;;;;;;17.60;5.83;;;9.50;99.90;;;;;;5062815;28;20451;-74
2022/11/25 13:56:15;;;;;;;10.53;5.77;;;9.60;99.90;;;;;;5070812;28;20452;-74
2022/11/25 13:59:37;;;;;;;15.90;6.17;;;9.60;99.90;;;;;;5067478;28;20424;-74
2022/11/25 14:02:44;;;;;;;12.70;6.40;;;9.70;99.90;;;;;;5063338;28;20442;-74
2022/11/25 14:05:58;;;;;;;15.17;6.50;;;9.70;99.90;;;;;;5058086;28;20429;-74
2022/11/25 14:08:55;;;;;;;10.67;5.43;;;9.80;99.90;;;;;;5073724;28;20521;-74
2022/11/25 14:12:04;;;;;;;19.20;6.63;;;9.80;99.90;;;;;;5076384;28;20413;-74
2022/11/25 14:15:19;;;;;;;12.03;5.13;;;9.70;99.90;;;;;;5069195;28;20499;-74
2022/11/25 14:18:23;;;;;;;14.07;5.50;;;9.80;99.90;;;;;;5071755;28;20829;-74
2022/11/25 14:21:20;;;;;;;11.93;6.00;;;9.60;99.90;;;;;;5071254;28;20450;-75
2022/11/25 14:24:17;;;;;;;9.57;5.93;;;9.50;99.90;;;;;;5056308;28;20495;-74
2022/11/25 14:27:05;;;;;;;11.43;6.00;;;9.50;99.90;;;;;;5065462;28;20821;-75
2022/11/25 14:29:54;;;;;;;8.97;5.73;;;9.50;99.90;;;;;;5076906;28;20437;-74
2022/11/25 14:32:45;;;;;;;17.03;6.00;;;9.40;99.90;;;;;;5056115;28;20474;-74
2022/11/25 14:35:35;;;;;;;14.13;6.00;;;9.30;99.90;;;;;;5067922;28;20602;-74
2022/11/25 14:38:28;;;;;;;10.60;5.97;;;9.30;99.90;;;;;;5072070;28;20608;-74
2022/11/25 14:41:18;;;;;;;9.57;4.97;;;9.30;99.90;;;;;;5070544;28;21009;-74
2022/11/25 14:44:07;;;;;;;9.20;4.60;;;9.30;99.90;;;;;;5065613;28;20444;-75
2022/11/25 14:46:53;;;;;;;11.57;5.63;;;9.30;99.90;;;;;;5070686;28;20441;-74